createdAt,value
2019-03-08T00:00:36.716Z,2.20
2019-03-08T00:03:06.316Z,2.07
2019-03-08T00:05:34.998Z,1.90
2019-03-08T00:08:03.610Z,2.60
2019-03-08T00:10:32.391Z,2.93
2019-03-08T00:13:01.067Z,3.80
2019-03-08T00:15:29.800Z,3.77
2019-03-08T00:17:58.638Z,1.77
2019-03-08T00:20:27.381Z,2.20
2019-03-08T00:22:56.071Z,1.80
2019-03-08T00:25:24.726Z,2.37
2019-03-08T00:27:53.594Z,1.80
2019-03-08T00:30:22.296Z,2.00
2019-03-08T00:32:51.024Z,2.02
2019-03-08T00:35:19.739Z,3.23
2019-03-08T00:37:48.340Z,2.13
2019-03-08T00:40:17.031Z,1.42
2019-03-08T00:42:45.725Z,3.10
2019-03-08T00:45:18.758Z,2.40
2019-03-08T00:47:47.446Z,1.70
2019-03-08T00:50:16.093Z,2.37
2019-03-08T00:52:44.804Z,2.37
2019-03-08T00:55:15.136Z,2.13
2019-03-08T00:57:43.783Z,2.60
2019-03-08T01:00:21.381Z,1.30
2019-03-08T01:02:50.100Z,2.10
2019-03-08T01:05:19.276Z,3.07
2019-03-08T01:07:47.990Z,1.80
2019-03-08T01:10:19.637Z,2.43
2019-03-08T01:12:48.609Z,2.40
2019-03-08T01:15:18.915Z,1.40
2019-03-08T01:17:47.700Z,2.20
2019-03-08T01:20:18.705Z,1.10
2019-03-08T01:22:47.398Z,1.73
2019-03-08T01:25:16.708Z,1.63
2019-03-08T01:28:00.330Z,2.77
2019-03-08T01:30:29.338Z,3.13
2019-03-08T01:32:57.988Z,3.00
2019-03-08T01:35:26.826Z,2.83
2019-03-08T01:37:55.613Z,2.10
2019-03-08T01:40:24.436Z,1.73
2019-03-08T01:42:53.058Z,2.10
2019-03-08T01:45:21.762Z,2.47
2019-03-08T01:47:50.505Z,1.20
2019-03-08T01:50:19.246Z,1.57
2019-03-08T01:52:47.859Z,1.30
2019-03-08T01:55:16.538Z,1.62
2019-03-08T01:57:45.284Z,1.17
2019-03-08T02:00:17.065Z,1.53
2019-03-08T02:02:45.980Z,1.10
2019-03-08T02:05:15.093Z,1.13
2019-03-08T02:07:43.820Z,1.10
2019-03-08T02:10:15.315Z,1.80
2019-03-08T02:12:44.607Z,1.57
2019-03-08T02:15:19.282Z,1.77
2019-03-08T02:17:48.241Z,1.77
2019-03-08T02:20:24.128Z,2.20
2019-03-08T02:22:52.866Z,1.43
2019-03-08T02:25:21.698Z,1.57
2019-03-08T02:27:50.454Z,1.93
2019-03-08T02:30:19.337Z,1.20
2019-03-08T02:32:47.998Z,1.30
2019-03-08T02:35:21.272Z,1.55
2019-03-08T02:37:50.152Z,2.10
2019-03-08T02:40:32.563Z,1.90
2019-03-08T02:43:02.197Z,2.70
2019-03-08T02:45:30.994Z,1.73
2019-03-08T02:47:59.632Z,2.00
2019-03-08T02:50:28.540Z,0.83
2019-03-08T02:52:57.277Z,2.40
2019-03-08T02:55:25.942Z,1.22
2019-03-08T02:57:54.614Z,1.40
2019-03-08T03:00:23.259Z,1.15
2019-03-08T03:02:52.014Z,1.00
2019-03-08T03:05:20.727Z,1.42
2019-03-08T03:07:49.369Z,1.30
2019-03-08T03:10:18.116Z,1.90
2019-03-08T03:12:46.752Z,1.10
2019-03-08T03:15:16.279Z,0.90
2019-03-08T03:17:44.909Z,1.45
2019-03-08T03:20:15.523Z,2.00
2019-03-08T03:22:44.261Z,1.97
2019-03-08T03:25:15.613Z,1.80
2019-03-08T03:27:44.248Z,1.63
2019-03-08T03:30:18.816Z,0.57
2019-03-08T03:32:47.543Z,1.90
2019-03-08T03:35:16.221Z,2.08
2019-03-08T03:37:44.828Z,1.70
2019-03-08T03:40:18.882Z,1.47
2019-03-08T03:42:47.600Z,2.60
2019-03-08T03:45:21.790Z,1.23
2019-03-08T03:47:50.510Z,1.70
2019-03-08T03:50:19.186Z,3.45
2019-03-08T03:52:47.830Z,1.07
2019-03-08T03:55:18.060Z,1.47
2019-03-08T03:57:46.917Z,2.60
2019-03-08T04:00:21.206Z,2.33
2019-03-08T04:02:49.887Z,2.27
2019-03-08T04:05:18.783Z,2.47
2019-03-08T04:07:47.504Z,1.47
2019-03-08T04:10:17.878Z,3.30
2019-03-08T04:12:46.737Z,1.60
2019-03-08T04:15:18.172Z,2.33
2019-03-08T04:17:47.257Z,2.40
2019-03-08T04:20:18.096Z,3.30
2019-03-08T04:22:46.826Z,2.70
2019-03-08T04:25:16.785Z,1.93
2019-03-08T04:27:45.500Z,2.67
2019-03-08T04:30:19.096Z,2.73
2019-03-08T04:32:47.938Z,2.97
2019-03-08T04:35:16.554Z,2.97
2019-03-08T04:37:45.332Z,1.73
2019-03-08T04:40:15.476Z,2.05
2019-03-08T04:42:44.174Z,1.75
2019-03-08T04:45:15.020Z,3.33
2019-03-08T04:47:43.894Z,3.23
2019-03-08T04:50:16.903Z,1.00
2019-03-08T04:52:45.588Z,2.97
2019-03-08T04:55:19.304Z,2.57
2019-03-08T04:57:48.283Z,2.83
2019-03-08T05:00:18.516Z,2.43
2019-03-08T05:02:47.137Z,1.60
2019-03-08T05:05:15.898Z,3.50
2019-03-08T05:07:44.793Z,1.70
2019-03-08T05:10:16.218Z,2.43
2019-03-08T05:12:44.861Z,2.60
2019-03-08T05:15:14.295Z,1.90
2019-03-08T05:17:43.034Z,3.87
2019-03-08T05:20:11.847Z,2.37
2019-03-08T05:22:40.614Z,3.17
2019-03-08T05:25:14.418Z,1.52
2019-03-08T05:27:43.127Z,1.80
2019-03-08T05:30:14.287Z,3.02
2019-03-08T05:32:42.933Z,1.27
2019-03-08T05:35:13.407Z,2.00
2019-03-08T05:37:42.029Z,1.40
2019-03-08T05:40:13.905Z,1.50
2019-03-08T05:42:42.862Z,3.70
2019-03-08T05:45:15.473Z,4.50
2019-03-08T05:47:44.340Z,3.43
2019-03-08T05:50:13.265Z,3.67
2019-03-08T05:52:42.919Z,6.03
2019-03-08T05:55:12.543Z,5.67
2019-03-08T05:57:41.469Z,4.78
2019-03-08T06:00:14.476Z,5.20
2019-03-08T06:02:44.029Z,4.90
2019-03-08T06:05:12.865Z,5.12
2019-03-08T06:07:41.803Z,4.47
2019-03-08T06:10:33.827Z,4.40
2019-03-08T06:13:13.520Z,2.45
2019-03-08T06:16:05.029Z,2.30
2019-03-08T06:18:33.849Z,2.45
2019-03-08T06:21:02.711Z,2.47
2019-03-08T06:23:31.448Z,2.10
2019-03-08T06:26:00.442Z,1.07
2019-03-08T06:28:29.206Z,1.57
2019-03-08T06:30:57.794Z,2.37
2019-03-08T06:33:26.655Z,2.40
2019-03-08T06:35:55.329Z,2.30
2019-03-08T06:38:23.955Z,2.33
2019-03-08T06:40:52.850Z,4.65
2019-03-08T06:43:21.479Z,4.60
2019-03-08T06:45:50.136Z,2.00
2019-03-08T06:48:18.871Z,2.42
2019-03-08T06:50:47.567Z,2.20
2019-03-08T06:53:16.372Z,3.77
2019-03-08T06:55:45.439Z,1.60
2019-03-08T06:58:15.797Z,2.47
2019-03-08T07:00:46.335Z,2.80
2019-03-08T07:03:15.317Z,1.62
2019-03-08T07:05:44.123Z,2.40
2019-03-08T07:08:13.661Z,3.80
2019-03-08T07:10:42.840Z,1.50
2019-03-08T07:13:11.793Z,1.60
2019-03-08T07:15:40.546Z,2.70
2019-03-08T07:18:12.846Z,3.02
2019-03-08T07:20:54.730Z,4.03
2019-03-08T07:23:28.357Z,1.80
2019-03-08T07:26:08.612Z,2.10
2019-03-08T07:28:55.140Z,2.37
2019-03-08T07:31:31.550Z,1.90
2019-03-08T07:34:13.490Z,2.33
2019-03-08T07:36:58.965Z,2.00
2019-03-08T07:39:38.425Z,0.57
2019-03-08T07:42:08.751Z,2.20
2019-03-08T07:44:42.267Z,1.60
2019-03-08T07:47:28.894Z,2.40
2019-03-08T07:49:59.205Z,1.60
2019-03-08T07:52:29.628Z,1.33
2019-03-08T07:54:59.929Z,3.70
2019-03-08T07:57:45.283Z,2.43
2019-03-08T08:00:32.805Z,2.17
2019-03-08T08:03:03.982Z,3.17
2019-03-08T08:05:47.327Z,1.83
2019-03-08T08:08:17.674Z,2.77
2019-03-08T08:10:47.973Z,1.47
2019-03-08T08:13:21.460Z,3.57
2019-03-08T08:16:03.946Z,2.17
2019-03-08T08:18:40.193Z,1.80
2019-03-08T08:21:26.936Z,4.30
2019-03-08T08:23:57.300Z,1.17
2019-03-08T08:26:33.407Z,2.03
2019-03-08T08:29:18.753Z,4.17
2019-03-08T08:31:49.322Z,3.00
2019-03-08T08:34:25.572Z,0.93
2019-03-08T08:36:58.973Z,2.67
2019-03-08T08:39:35.206Z,2.93
2019-03-08T08:42:08.874Z,2.93
2019-03-08T08:44:42.075Z,2.27
2019-03-08T08:47:15.184Z,1.97
2019-03-08T08:49:55.749Z,2.40
2019-03-08T08:52:26.770Z,2.20
2019-03-08T08:55:00.048Z,2.47
2019-03-08T08:57:33.412Z,2.17
2019-03-08T09:00:03.813Z,2.07
2019-03-08T09:02:34.206Z,3.23
2019-03-08T09:05:10.282Z,1.30
2019-03-08T09:07:43.369Z,1.20
2019-03-08T09:10:13.646Z,1.50
2019-03-08T09:12:58.950Z,2.07
2019-03-08T09:15:35.331Z,2.10
2019-03-08T09:18:08.356Z,1.70
2019-03-08T09:20:38.586Z,2.60
2019-03-08T09:23:08.989Z,2.20
2019-03-08T09:25:39.249Z,2.63
2019-03-08T09:28:09.568Z,3.20
2019-03-08T09:30:52.083Z,2.13
2019-03-08T09:33:28.344Z,2.00
2019-03-08T09:35:58.664Z,2.90
2019-03-08T09:38:44.664Z,1.03
2019-03-08T09:41:20.802Z,3.10
2019-03-08T09:43:57.471Z,3.10
2019-03-08T09:46:42.710Z,2.23
2019-03-08T09:49:13.003Z,1.67
2019-03-08T09:51:43.360Z,1.47
2019-03-08T09:54:13.624Z,1.90
2019-03-08T09:56:43.903Z,2.87
2019-03-08T09:59:17.127Z,2.17
2019-03-08T10:01:56.555Z,3.00
2019-03-08T10:04:27.144Z,2.50
2019-03-08T10:07:03.197Z,2.80
2019-03-08T10:09:49.904Z,2.70
2019-03-08T10:12:22.989Z,2.63
2019-03-08T10:14:59.353Z,3.10
2019-03-08T10:17:41.631Z,2.00
2019-03-08T10:20:11.954Z,2.40
2019-03-08T10:22:42.522Z,2.73
2019-03-08T10:25:24.775Z,3.20
2019-03-08T10:28:04.158Z,3.30
2019-03-08T10:30:34.409Z,3.40
2019-03-08T10:33:14.363Z,1.97
2019-03-08T10:35:48.471Z,3.50
2019-03-08T10:38:22.852Z,3.17
2019-03-08T10:40:59.567Z,1.83
2019-03-08T10:43:29.811Z,1.00
2019-03-08T10:46:15.758Z,2.63
2019-03-08T10:48:53.274Z,3.13
2019-03-08T10:51:23.531Z,2.70
2019-03-08T10:54:07.194Z,2.17
2019-03-08T10:56:37.485Z,2.43
2019-03-08T10:59:07.766Z,1.83
2019-03-08T11:01:47.179Z,1.87
2019-03-08T11:04:18.026Z,1.85
2019-03-08T11:06:54.122Z,2.00
2019-03-08T11:09:24.401Z,2.30
2019-03-08T11:12:03.268Z,3.55
2019-03-08T11:14:49.917Z,2.60
2019-03-08T11:17:20.240Z,2.60
2019-03-08T11:19:50.622Z,5.00
2019-03-08T11:22:39.015Z,2.27
2019-03-08T11:25:13.789Z,2.20
2019-03-08T11:28:02.234Z,2.57
2019-03-08T11:30:53.892Z,2.40
2019-03-08T11:33:20.595Z,2.10
2019-03-08T11:35:51.032Z,2.03
2019-03-08T11:38:27.354Z,2.50
2019-03-08T11:41:00.477Z,2.60
2019-03-08T11:43:30.920Z,2.95
2019-03-08T11:46:01.227Z,2.73
2019-03-08T11:48:31.504Z,1.47
2019-03-08T11:51:07.938Z,2.17
2019-03-08T11:53:56.463Z,1.00
2019-03-08T11:56:41.871Z,1.70
2019-03-08T11:59:12.420Z,2.67
2019-03-08T12:01:48.792Z,2.35
2019-03-08T12:04:37.069Z,2.30
2019-03-08T12:07:13.319Z,2.30
2019-03-08T12:09:46.670Z,1.23
2019-03-08T12:12:19.722Z,3.47
2019-03-08T12:14:56.033Z,1.50
2019-03-08T12:17:44.482Z,2.10
2019-03-08T12:20:14.899Z,2.00
2019-03-08T12:23:01.432Z,2.73
2019-03-08T12:25:34.789Z,2.07
2019-03-08T12:28:21.496Z,1.43
2019-03-08T12:30:54.755Z,2.08
2019-03-08T12:33:25.058Z,1.57
2019-03-08T12:35:55.299Z,1.30
2019-03-08T12:38:34.421Z,0.70
2019-03-08T12:41:04.731Z,2.30
2019-03-08T12:43:53.370Z,2.17
2019-03-08T12:46:23.658Z,1.95
2019-03-08T12:48:54.215Z,2.40
2019-03-08T12:51:24.519Z,3.27
2019-03-08T12:53:54.834Z,1.30
2019-03-08T12:56:25.157Z,1.10
2019-03-08T12:59:07.478Z,1.47
2019-03-08T13:01:37.907Z,1.53
2019-03-08T13:04:11.374Z,2.80
2019-03-08T13:06:41.720Z,1.47
2019-03-08T13:09:14.471Z,2.65
2019-03-08T13:11:43.256Z,3.00
2019-03-08T13:14:12.168Z,2.37
2019-03-08T13:16:40.924Z,1.10
2019-03-08T13:19:09.803Z,1.50
2019-03-08T13:21:38.730Z,2.13
2019-03-08T13:24:07.575Z,1.30
2019-03-08T13:26:36.319Z,1.70
2019-03-08T13:29:05.091Z,1.47
2019-03-08T13:31:33.817Z,2.20
2019-03-08T13:34:02.788Z,1.80
2019-03-08T13:36:31.519Z,1.10
2019-03-08T13:39:00.189Z,1.83
2019-03-08T13:41:28.923Z,1.75
2019-03-08T13:43:57.567Z,1.57
2019-03-08T13:46:26.388Z,1.60
2019-03-08T13:48:55.132Z,1.47
2019-03-08T13:51:23.900Z,2.67
2019-03-08T13:53:52.888Z,0.50
2019-03-08T13:56:21.787Z,1.53
2019-03-08T13:58:50.510Z,1.47
2019-03-08T14:01:19.196Z,1.70
2019-03-08T14:03:47.934Z,1.70
2019-03-08T14:06:17.368Z,2.42
2019-03-08T14:08:46.407Z,0.77
2019-03-08T14:11:15.178Z,1.60
2019-03-08T14:13:44.818Z,1.30
2019-03-08T14:16:13.496Z,1.30
2019-03-08T14:18:42.307Z,1.60
2019-03-08T14:21:11.056Z,2.22
2019-03-08T14:23:39.907Z,0.97
2019-03-08T14:26:08.682Z,0.70
2019-03-08T14:28:37.399Z,0.83
2019-03-08T14:34:05.371Z,1.03
2019-03-08T14:36:34.011Z,1.10
2019-03-08T14:39:04.250Z,1.60
2019-03-08T14:41:34.869Z,1.70
2019-03-08T14:44:11.246Z,0.70
2019-03-08T14:46:41.511Z,1.60
2019-03-08T14:49:11.990Z,1.30
2019-03-08T14:51:40.895Z,2.27
2019-03-08T14:54:10.079Z,1.50
2019-03-08T14:56:40.117Z,1.47
2019-03-08T14:59:11.138Z,1.55
2019-03-08T15:01:40.263Z,0.77
2019-03-08T15:04:09.801Z,1.30
2019-03-08T15:06:38.613Z,1.00
2019-03-08T15:09:10.791Z,0.53
2019-03-08T15:11:39.660Z,1.80
2019-03-08T15:14:08.408Z,1.30
2019-03-08T15:16:39.231Z,1.37
2019-03-08T15:19:07.643Z,1.87
2019-03-08T15:21:37.035Z,2.00
2019-03-08T15:24:06.938Z,1.77
2019-03-08T15:26:35.687Z,1.77
2019-03-08T15:29:05.483Z,1.65
2019-03-08T15:31:34.301Z,1.60
2019-03-08T15:34:03.078Z,0.93
2019-03-08T15:36:31.795Z,2.20
2019-03-08T15:39:00.505Z,1.63
2019-03-08T15:41:29.332Z,1.57
2019-03-08T15:43:58.019Z,1.30
2019-03-08T15:46:27.104Z,1.50
2019-03-08T15:48:56.952Z,1.73
2019-03-08T15:51:26.949Z,1.50
2019-03-08T15:53:55.826Z,2.27
2019-03-08T15:56:24.727Z,1.80
2019-03-08T15:58:53.413Z,3.60
2019-03-08T16:01:22.987Z,1.60
2019-03-08T16:03:55.310Z,1.53
2019-03-08T16:06:24.598Z,1.80
2019-03-08T16:08:54.405Z,1.73
2019-03-08T16:11:27.023Z,1.40
2019-03-08T16:14:08.523Z,1.52
2019-03-08T16:16:30.777Z,1.50
2019-03-08T16:18:59.578Z,1.20
2019-03-08T16:21:30.175Z,1.97
2019-03-08T16:24:05.728Z,1.85
2019-03-08T16:26:34.609Z,2.73
2019-03-08T16:29:03.321Z,1.70
2019-03-08T16:31:36.513Z,1.40
2019-03-08T16:34:10.272Z,1.70
2019-03-08T16:36:41.615Z,1.57
2019-03-08T16:39:12.695Z,2.10
2019-03-08T16:41:45.959Z,2.03
2019-03-08T16:44:25.281Z,2.62
2019-03-08T16:47:13.762Z,2.00
2019-03-08T16:49:51.502Z,1.40
2019-03-08T16:52:23.214Z,1.85
2019-03-08T16:54:55.807Z,1.60
2019-03-08T16:57:44.283Z,1.70
2019-03-08T17:00:15.240Z,2.70
2019-03-08T17:02:45.702Z,1.47
2019-03-08T17:05:31.666Z,2.30
2019-03-08T17:08:18.034Z,1.73
2019-03-08T17:10:48.458Z,2.70
2019-03-08T17:13:25.186Z,2.10
2019-03-08T17:16:12.382Z,2.30
2019-03-08T17:18:43.338Z,2.10
2019-03-08T17:21:30.427Z,2.00
2019-03-08T17:24:17.846Z,1.90
2019-03-08T17:26:48.723Z,2.27
2019-03-08T17:29:27.931Z,2.20
2019-03-08T17:32:10.593Z,2.10
2019-03-08T17:34:45.677Z,1.73
2019-03-08T17:37:32.478Z,2.00
2019-03-08T17:40:09.066Z,1.87
2019-03-08T17:42:48.891Z,1.87
2019-03-08T17:45:22.491Z,2.50
2019-03-08T17:47:53.109Z,2.37
2019-03-08T17:50:28.503Z,1.37
2019-03-08T17:53:17.994Z,2.07
2019-03-08T17:56:06.728Z,2.20
2019-03-08T17:58:42.933Z,2.10
2019-03-08T18:01:22.467Z,1.70
2019-03-08T18:03:55.895Z,1.50
2019-03-08T18:06:35.072Z,1.17
2019-03-08T18:09:12.705Z,1.90
2019-03-08T18:11:55.192Z,2.30
2019-03-08T18:14:25.791Z,1.98
2019-03-08T18:17:05.199Z,1.83
2019-03-08T18:19:43.750Z,2.33
2019-03-08T18:22:15.023Z,1.57
2019-03-08T18:24:57.203Z,2.80
2019-03-08T18:27:37.125Z,1.90
2019-03-08T18:30:19.958Z,2.57
2019-03-08T18:32:53.369Z,3.00
2019-03-08T18:35:24.969Z,2.80
2019-03-08T18:37:55.952Z,2.80
2019-03-08T18:40:43.135Z,2.47
2019-03-08T18:43:23.631Z,3.90
2019-03-08T18:45:54.281Z,3.87
2019-03-08T18:48:31.333Z,3.23
2019-03-08T18:51:14.237Z,4.70
2019-03-08T18:53:50.807Z,4.05
2019-03-08T18:56:21.837Z,3.10
2019-03-08T18:58:58.880Z,4.60
2019-03-08T19:01:46.179Z,4.00
2019-03-08T19:04:17.321Z,3.00
2019-03-08T19:06:54.279Z,2.70
2019-03-08T19:09:31.490Z,3.23
2019-03-08T19:12:14.185Z,3.20
2019-03-08T19:14:48.679Z,2.97
2019-03-08T19:17:35.649Z,3.30
2019-03-08T19:20:25.590Z,2.98
2019-03-08T19:22:59.064Z,3.00
2019-03-08T19:25:34.186Z,3.00
2019-03-08T19:28:14.383Z,3.13
2019-03-08T19:31:00.770Z,2.23
2019-03-08T19:33:35.694Z,2.67
2019-03-08T19:36:09.989Z,2.67
2019-03-08T19:38:41.009Z,1.83
2019-03-08T19:41:14.801Z,2.35
2019-03-08T19:43:51.537Z,1.93
2019-03-08T19:46:38.927Z,2.70
2019-03-08T19:49:19.744Z,2.47
2019-03-08T19:52:11.374Z,2.37
2019-03-08T19:54:42.055Z,2.70
2019-03-08T20:00:27.205Z,3.10
2019-03-08T20:03:09.458Z,3.50
2019-03-08T20:05:55.246Z,2.85
2019-03-08T20:08:29.439Z,2.63
2019-03-08T20:11:00.572Z,3.47
2019-03-08T20:13:31.743Z,4.05
2019-03-08T20:16:14.865Z,3.60
2019-03-08T20:18:49.239Z,4.17
2019-03-08T20:21:32.550Z,3.73
2019-03-08T20:24:06.829Z,3.23
2019-03-08T20:26:47.523Z,3.97
2019-03-08T20:29:35.161Z,3.98
2019-03-08T20:32:25.851Z,4.60
2019-03-08T20:35:05.266Z,6.10
2019-03-08T20:37:39.324Z,5.53
2019-03-08T20:40:10.188Z,5.23
2019-03-08T20:42:41.114Z,4.70
2019-03-08T20:45:25.583Z,4.72
2019-03-08T20:47:54.674Z,5.03
2019-03-08T20:50:24.355Z,6.93
2019-03-08T20:52:54.100Z,7.67
2019-03-08T20:55:23.228Z,7.67
2019-03-08T20:57:52.187Z,8.33
2019-03-08T21:00:21.817Z,8.85
2019-03-08T21:02:50.932Z,10.90
2019-03-08T21:05:20.306Z,9.93
2019-03-08T21:07:49.803Z,8.60
2019-03-08T21:10:19.139Z,9.73
2019-03-08T21:12:48.197Z,8.97
2019-03-08T21:15:25.057Z,7.70
2019-03-08T21:17:50.232Z,9.97
2019-03-08T21:20:19.565Z,8.50
2019-03-08T21:22:48.567Z,8.47
2019-03-08T21:25:17.479Z,6.67
2019-03-08T21:27:46.344Z,7.33
2019-03-08T21:30:19.054Z,7.37
2019-03-08T21:32:48.044Z,7.50
2019-03-08T21:35:17.441Z,7.75
2019-03-08T21:37:46.442Z,7.10
2019-03-08T21:40:15.656Z,6.80
2019-03-08T21:42:44.662Z,6.20
2019-03-08T21:45:16.741Z,7.03
2019-03-08T21:47:45.433Z,4.93
2019-03-08T21:50:18.031Z,5.83
2019-03-08T21:52:46.701Z,5.85
2019-03-08T21:55:15.835Z,7.60
2019-03-08T21:57:44.688Z,6.70
2019-03-08T22:00:22.768Z,7.30
2019-03-08T22:02:51.736Z,7.00
2019-03-08T22:05:28.082Z,5.77
2019-03-08T22:07:56.835Z,5.77
2019-03-08T22:10:36.337Z,5.13
2019-03-08T22:13:06.689Z,3.02
2019-03-08T22:15:38.854Z,4.63
2019-03-08T22:18:08.006Z,4.47
2019-03-08T22:20:37.162Z,2.23
2019-03-08T22:23:10.833Z,2.72
2019-03-08T22:25:42.144Z,1.30
2019-03-08T22:28:14.871Z,1.73
2019-03-08T22:30:45.783Z,1.33
2019-03-08T22:33:15.982Z,2.10
2019-03-08T22:35:44.820Z,3.60
2019-03-08T22:38:13.550Z,1.97
2019-03-08T22:40:42.369Z,2.70
2019-03-08T22:43:11.198Z,2.42
2019-03-08T22:45:39.907Z,2.67
2019-03-08T22:48:08.675Z,3.40
2019-03-08T22:50:37.527Z,2.27
2019-03-08T22:53:06.206Z,1.40
2019-03-08T22:55:34.898Z,1.80
2019-03-08T22:58:03.648Z,0.97
2019-03-08T23:00:55.523Z,2.87
2019-03-08T23:03:25.823Z,2.00
2019-03-08T23:05:54.579Z,3.97
2019-03-08T23:08:23.242Z,3.03
2019-03-08T23:10:51.955Z,3.30
2019-03-08T23:13:20.924Z,1.55
2019-03-08T23:15:49.666Z,4.20
2019-03-08T23:18:18.302Z,5.37
2019-03-08T23:20:47.302Z,2.03
2019-03-08T23:23:16.318Z,3.67
2019-03-08T23:25:45.031Z,3.60
2019-03-08T23:28:31.634Z,3.23
2019-03-08T23:31:18.011Z,3.20
2019-03-08T23:33:46.872Z,4.63
2019-03-08T23:36:15.664Z,4.57
2019-03-08T23:38:44.578Z,4.23
2019-03-08T23:41:13.327Z,2.50
2019-03-08T23:43:42.135Z,3.20
2019-03-08T23:46:10.919Z,3.77
2019-03-08T23:48:39.620Z,4.20
2019-03-08T23:51:08.588Z,3.43
2019-03-08T23:53:37.289Z,2.40
2019-03-08T23:56:06.321Z,2.27
2019-03-08T23:58:35.034Z,3.27
